createdAt,value
2023-04-06T00:01:31.544Z,99.93
2023-04-06T00:03:58.545Z,98.36
2023-04-06T00:06:25.679Z,98.13
2023-04-06T00:08:53.313Z,98.56
2023-04-06T00:11:21.297Z,99.44
2023-04-06T00:13:48.135Z,100.00
2023-04-06T00:16:14.983Z,99.06
2023-04-06T00:18:42.111Z,99.88
2023-04-06T00:21:09.149Z,100.00
2023-04-06T00:23:36.206Z,99.74
2023-04-06T00:26:03.032Z,100.00
2023-04-06T00:28:31.116Z,99.43
2023-04-06T00:30:58.022Z,98.24
2023-04-06T00:33:25.206Z,98.58
2023-04-06T00:35:52.208Z,96.67
2023-04-06T00:38:19.347Z,97.90
2023-04-06T00:40:46.408Z,99.40
2023-04-06T00:43:13.933Z,97.36
2023-04-06T00:45:42.004Z,97.91
2023-04-06T00:48:10.149Z,98.24
2023-04-06T00:50:38.478Z,96.80
2023-04-06T00:53:05.483Z,96.54
2023-04-06T00:55:32.408Z,96.81
2023-04-06T00:58:01.794Z,98.35
2023-04-06T01:00:33.161Z,97.72
2023-04-06T01:03:02.427Z,95.75
2023-04-06T01:05:41.388Z,97.84
2023-04-06T01:08:14.404Z,97.30
2023-04-06T01:10:41.469Z,96.16
2023-04-06T01:13:14.661Z,95.91
2023-04-06T01:15:52.486Z,95.80
2023-04-06T01:18:28.095Z,97.00
2023-04-06T01:21:04.848Z,99.96
2023-04-06T01:23:32.147Z,97.34
2023-04-06T01:25:59.036Z,95.88
2023-04-06T01:28:30.719Z,96.62
2023-04-06T01:31:09.800Z,96.29
2023-04-06T01:33:49.996Z,96.24
2023-04-06T01:36:20.074Z,95.19
2023-04-06T01:38:53.452Z,93.75
2023-04-06T01:41:24.436Z,93.56
2023-04-06T01:43:55.812Z,91.79
2023-04-06T01:46:27.309Z,90.24
2023-04-06T01:48:54.598Z,90.29
2023-04-06T01:51:50.860Z,92.28
2023-04-06T01:54:17.812Z,91.31
2023-04-06T01:57:11.641Z,91.15
2023-04-06T01:59:45.577Z,91.10
2023-04-06T02:02:40.460Z,90.12
2023-04-06T02:05:13.749Z,91.60
2023-04-06T02:07:41.535Z,92.79
2023-04-06T02:10:14.013Z,93.93
2023-04-06T02:12:41.583Z,93.23
2023-04-06T02:15:14.309Z,91.35
2023-04-06T02:17:42.980Z,92.26
2023-04-06T02:20:10.484Z,89.54
2023-04-06T02:22:37.479Z,88.42
2023-04-06T02:25:04.571Z,89.49
2023-04-06T02:27:31.454Z,90.29
2023-04-06T02:29:58.868Z,91.80
2023-04-06T02:32:26.087Z,90.64
2023-04-06T02:34:53.559Z,88.86
2023-04-06T02:37:22.057Z,89.02
2023-04-06T02:39:48.931Z,88.20
2023-04-06T02:42:16.530Z,88.11
2023-04-06T02:44:45.400Z,89.83
2023-04-06T02:47:13.066Z,91.60
2023-04-06T02:49:43.095Z,93.82
2023-04-06T02:52:09.945Z,92.54
2023-04-06T02:54:37.274Z,91.30
2023-04-06T02:57:04.675Z,90.02
2023-04-06T02:59:37.968Z,89.92
2023-04-06T03:02:22.747Z,89.05
2023-04-06T03:04:50.095Z,88.06
2023-04-06T03:07:26.208Z,88.78
2023-04-06T03:09:53.027Z,89.06
2023-04-06T03:12:19.784Z,90.39
2023-04-06T03:15:06.930Z,92.59
2023-04-06T03:17:34.039Z,92.76
2023-04-06T03:20:04.964Z,92.56
2023-04-06T03:22:32.779Z,92.62
2023-04-06T03:25:03.038Z,89.45
2023-04-06T03:27:31.799Z,89.22
2023-04-06T03:29:59.559Z,88.85
2023-04-06T03:32:32.407Z,88.69
2023-04-06T03:34:59.189Z,88.18
2023-04-06T03:37:26.032Z,87.89
2023-04-06T03:39:56.740Z,92.75
2023-04-06T03:42:25.483Z,91.51
2023-04-06T03:44:57.146Z,90.84
2023-04-06T03:47:24.558Z,90.28
2023-04-06T03:49:55.105Z,90.57
2023-04-06T03:52:24.038Z,90.03
2023-04-06T03:54:52.321Z,90.15
2023-04-06T03:57:19.205Z,89.53
2023-04-06T03:59:46.025Z,89.50
2023-04-06T04:02:13.217Z,87.59
2023-04-06T04:04:40.668Z,86.53
2023-04-06T04:07:07.494Z,86.94
2023-04-06T04:09:34.955Z,87.59
2023-04-06T04:12:01.781Z,87.42
2023-04-06T04:14:29.652Z,88.01
2023-04-06T04:16:56.786Z,87.23
2023-04-06T04:19:24.329Z,86.89
2023-04-06T04:21:51.161Z,85.90
2023-04-06T04:24:24.479Z,87.47
2023-04-06T04:26:51.511Z,88.09
2023-04-06T04:29:22.239Z,88.81
2023-04-06T04:31:51.029Z,87.01
2023-04-06T04:34:18.242Z,87.12
2023-04-06T04:36:45.295Z,86.96
2023-04-06T04:39:19.487Z,85.17
2023-04-06T04:41:51.166Z,87.57
2023-04-06T04:44:18.030Z,89.80
2023-04-06T04:46:44.912Z,88.19
2023-04-06T04:49:15.585Z,87.57
2023-04-06T04:51:43.390Z,87.21
2023-04-06T04:54:18.783Z,88.22
2023-04-06T04:56:46.637Z,87.34
2023-04-06T04:59:23.786Z,86.40
2023-04-06T05:01:59.636Z,85.53
2023-04-06T05:04:36.800Z,87.10
2023-04-06T05:07:08.977Z,87.25
2023-04-06T05:09:38.055Z,88.11
2023-04-06T05:12:05.742Z,87.27
2023-04-06T05:14:37.969Z,85.05
2023-04-06T05:17:10.996Z,85.76
2023-04-06T05:19:37.905Z,84.99
2023-04-06T05:22:04.705Z,87.19
2023-04-06T05:24:36.194Z,85.86
2023-04-06T05:27:06.029Z,85.27
2023-04-06T05:29:34.972Z,87.50
2023-04-06T05:32:03.286Z,85.93
2023-04-06T05:34:30.403Z,86.39
2023-04-06T05:36:58.037Z,86.07
2023-04-06T05:39:25.942Z,86.24
2023-04-06T05:41:54.100Z,88.82
2023-04-06T05:44:31.818Z,91.91
2023-04-06T05:47:09.203Z,89.43
2023-04-06T05:49:38.319Z,90.24
2023-04-06T05:52:14.578Z,88.93
2023-04-06T05:54:45.380Z,90.05
2023-04-06T05:57:12.262Z,90.81
2023-04-06T05:59:40.161Z,91.18
2023-04-06T06:02:07.440Z,92.97
2023-04-06T06:04:39.241Z,91.94
2023-04-06T06:07:06.521Z,90.34
2023-04-06T06:09:39.321Z,89.00
2023-04-06T06:12:21.947Z,90.10
2023-04-06T06:14:50.506Z,87.40
2023-04-06T06:17:17.768Z,88.17
2023-04-06T06:19:47.095Z,86.59
2023-04-06T06:22:14.014Z,85.18
2023-04-06T06:24:44.866Z,86.90
2023-04-06T06:27:12.575Z,86.55
2023-04-06T06:29:40.976Z,89.99
2023-04-06T06:32:10.061Z,86.41
2023-04-06T06:34:38.044Z,85.73
2023-04-06T06:37:07.151Z,85.25
2023-04-06T06:39:35.163Z,84.69
2023-04-06T06:42:02.460Z,86.59
2023-04-06T06:44:55.869Z,85.44
2023-04-06T06:47:24.467Z,85.21
2023-04-06T06:49:51.511Z,86.62
2023-04-06T06:52:18.756Z,85.79
2023-04-06T06:54:45.712Z,87.33
2023-04-06T06:57:12.642Z,83.90
2023-04-06T06:59:39.560Z,86.10
2023-04-06T07:02:09.602Z,84.56
2023-04-06T07:04:36.621Z,85.97
2023-04-06T07:07:04.780Z,86.31
2023-04-06T07:09:33.171Z,87.76
2023-04-06T07:12:00.186Z,86.75
2023-04-06T07:14:28.599Z,89.18
2023-04-06T07:16:56.487Z,91.94
2023-04-06T07:19:23.950Z,94.94
2023-04-06T07:21:51.380Z,97.50
2023-04-06T07:24:18.313Z,100.00
2023-04-06T07:26:45.246Z,100.00
2023-04-06T07:29:19.807Z,100.00
2023-04-06T07:31:47.429Z,100.00
2023-04-06T07:34:17.182Z,100.00
2023-04-06T07:36:44.612Z,100.00
2023-04-06T07:39:11.795Z,100.00
2023-04-06T07:41:39.249Z,100.00
2023-04-06T07:44:07.404Z,100.00
2023-04-06T07:46:35.632Z,100.00
2023-04-06T07:49:06.079Z,100.00
2023-04-06T07:51:38.208Z,100.00
2023-04-06T07:54:08.716Z,100.00
2023-04-06T07:56:36.761Z,100.00
2023-04-06T07:59:05.419Z,100.00
2023-04-06T08:01:35.074Z,100.00
2023-04-06T08:04:03.586Z,100.00
2023-04-06T08:06:30.717Z,100.00
2023-04-06T08:09:01.305Z,100.00
2023-04-06T08:11:28.917Z,100.00
2023-04-06T08:13:57.834Z,100.00
2023-04-06T08:16:29.020Z,100.00
2023-04-06T08:18:56.129Z,100.00
2023-04-06T08:21:24.762Z,100.00
2023-04-06T08:24:15.755Z,100.00
2023-04-06T08:27:05.245Z,100.00
2023-04-06T08:29:32.249Z,100.00
2023-04-06T08:31:59.115Z,100.00
2023-04-06T08:34:26.380Z,100.00
2023-04-06T08:36:53.670Z,100.00
2023-04-06T08:39:26.471Z,100.00
2023-04-06T08:41:54.389Z,100.00
2023-04-06T08:44:21.654Z,100.00
2023-04-06T08:46:48.944Z,100.00
2023-04-06T08:49:17.636Z,100.00
2023-04-06T08:51:44.943Z,100.00
2023-04-06T08:54:11.943Z,100.00
2023-04-06T08:56:40.755Z,100.00
2023-04-06T08:59:08.649Z,100.00
2023-04-06T09:01:40.029Z,100.00
2023-04-06T09:04:10.923Z,100.00
2023-04-06T09:06:38.823Z,100.00
2023-04-06T09:09:05.652Z,100.00
2023-04-06T09:11:44.518Z,100.00
2023-04-06T09:14:13.186Z,100.00
2023-04-06T09:16:48.687Z,100.00
2023-04-06T09:19:15.621Z,100.00
2023-04-06T09:21:42.717Z,100.00
2023-04-06T09:24:10.602Z,100.00
2023-04-06T09:26:48.410Z,100.00
2023-04-06T09:29:28.230Z,100.00
2023-04-06T09:32:11.258Z,100.00
2023-04-06T09:37:44.159Z,100.00
2023-04-06T09:40:15.038Z,100.00
2023-04-06T09:42:56.558Z,100.00
2023-04-06T09:45:27.364Z,100.00
2023-04-06T09:47:57.712Z,100.00
2023-04-06T09:50:35.467Z,100.00
2023-04-06T09:53:08.161Z,100.00
2023-04-06T09:55:41.904Z,100.00
2023-04-06T09:58:11.762Z,100.00
2023-04-06T10:01:06.845Z,100.00
2023-04-06T10:03:48.227Z,100.00
2023-04-06T10:06:16.283Z,100.00
2023-04-06T10:08:44.378Z,100.00
2023-04-06T10:11:14.659Z,100.00
2023-04-06T10:13:43.227Z,100.00
2023-04-06T10:16:10.514Z,100.00
2023-04-06T10:18:38.572Z,100.00
2023-04-06T10:21:10.330Z,100.00
2023-04-06T10:26:58.753Z,100.00
2023-04-06T10:29:26.153Z,100.00
2023-04-06T10:31:53.377Z,100.00
2023-04-06T10:34:20.316Z,100.00
2023-04-06T10:36:47.282Z,100.00
2023-04-06T10:39:14.269Z,100.00
2023-04-06T10:41:46.893Z,100.00
2023-04-06T10:44:24.863Z,100.00
2023-04-06T10:46:57.000Z,100.00
2023-04-06T10:49:27.325Z,100.00
2023-04-06T10:51:55.257Z,100.00
2023-04-06T10:54:23.776Z,100.00
2023-04-06T10:56:50.750Z,100.00
2023-04-06T10:59:24.728Z,100.00
2023-04-06T11:01:51.979Z,100.00
2023-04-06T11:04:19.773Z,100.00
2023-04-06T11:06:50.914Z,100.00
2023-04-06T11:09:50.572Z,100.00
2023-04-06T11:12:28.183Z,100.00
2023-04-06T11:15:10.611Z,100.00
2023-04-06T11:17:38.223Z,100.00
2023-04-06T11:20:06.780Z,100.00
2023-04-06T11:22:36.764Z,100.00
2023-04-06T11:25:07.795Z,100.00
2023-04-06T11:27:35.613Z,100.00
2023-04-06T11:30:04.143Z,100.00
2023-04-06T11:32:30.939Z,100.00
2023-04-06T11:34:59.103Z,100.00
2023-04-06T11:37:30.702Z,100.00
2023-04-06T11:40:00.988Z,100.00
2023-04-06T11:42:31.158Z,100.00
2023-04-06T11:44:59.708Z,100.00
2023-04-06T11:47:31.875Z,100.00
2023-04-06T11:50:10.614Z,100.00
2023-04-06T11:52:37.820Z,100.00
2023-04-06T11:55:18.713Z,100.00
2023-04-06T11:57:46.260Z,100.00
2023-04-06T12:00:13.843Z,100.00
2023-04-06T12:02:42.729Z,100.00
2023-04-06T12:05:12.059Z,100.00
2023-04-06T12:10:11.926Z,100.00
2023-04-06T12:12:39.284Z,100.00
2023-04-06T12:15:06.871Z,100.00
2023-04-06T12:17:33.651Z,100.00
2023-04-06T12:20:05.253Z,100.00
2023-04-06T12:22:32.852Z,100.00
2023-04-06T12:24:59.765Z,100.00
2023-04-06T12:27:26.740Z,100.00
2023-04-06T12:29:53.690Z,100.00
2023-04-06T12:32:21.786Z,100.00
2023-04-06T12:34:54.835Z,100.00
2023-04-06T12:37:22.019Z,100.00
2023-04-06T12:39:57.697Z,100.00
2023-04-06T12:42:26.020Z,100.00
2023-04-06T12:44:52.888Z,100.00
2023-04-06T12:47:19.849Z,100.00
2023-04-06T12:49:46.802Z,100.00
2023-04-06T12:52:13.837Z,100.00
2023-04-06T12:54:40.647Z,100.00
2023-04-06T12:57:08.579Z,100.00
2023-04-06T12:59:39.037Z,100.00
2023-04-06T13:02:06.583Z,100.00
2023-04-06T13:04:33.841Z,100.00
2023-04-06T13:07:03.082Z,100.00
2023-04-06T13:09:30.320Z,100.00
2023-04-06T13:12:00.744Z,100.00
2023-04-06T13:14:27.694Z,100.00
2023-04-06T13:16:55.342Z,100.00
2023-04-06T13:19:22.694Z,100.00
2023-04-06T13:21:49.577Z,100.00
2023-04-06T13:24:19.901Z,100.00
2023-04-06T13:26:47.066Z,100.00
2023-04-06T13:29:17.792Z,100.00
2023-04-06T13:31:44.769Z,100.00
2023-04-06T13:34:11.902Z,100.00
2023-04-06T13:37:11.360Z,100.00
2023-04-06T13:39:45.618Z,100.00
2023-04-06T13:42:12.754Z,100.00
2023-04-06T13:44:39.605Z,100.00
2023-04-06T13:47:07.477Z,100.00
2023-04-06T13:49:35.890Z,100.00
2023-04-06T13:52:02.893Z,100.00
2023-04-06T13:54:29.895Z,100.00
2023-04-06T13:56:57.869Z,100.00
2023-04-06T13:59:25.063Z,100.00
2023-04-06T14:01:52.237Z,100.00
2023-04-06T14:04:19.279Z,100.00
2023-04-06T14:06:47.095Z,100.00
2023-04-06T14:09:16.177Z,100.00
2023-04-06T14:11:46.465Z,100.00
2023-04-06T14:14:13.861Z,100.00
2023-04-06T14:16:41.233Z,100.00
2023-04-06T14:19:08.136Z,100.00
2023-04-06T14:21:35.364Z,100.00
2023-04-06T14:24:36.046Z,100.00
2023-04-06T14:27:28.055Z,100.00
2023-04-06T14:33:06.682Z,100.00
2023-04-06T14:35:33.682Z,100.00
2023-04-06T14:38:02.925Z,100.00
2023-04-06T14:40:29.967Z,100.00
2023-04-06T14:42:59.994Z,100.00
2023-04-06T14:45:29.694Z,100.00
2023-04-06T14:47:57.071Z,100.00
2023-04-06T14:50:29.525Z,100.00
2023-04-06T14:53:03.484Z,100.00
2023-04-06T14:55:31.531Z,100.00
2023-04-06T14:57:59.937Z,100.00
2023-04-06T15:00:27.525Z,100.00
2023-04-06T15:02:55.427Z,100.00
2023-04-06T15:05:22.564Z,100.00
2023-04-06T15:07:49.505Z,100.00
2023-04-06T15:10:18.349Z,100.00
2023-04-06T15:12:45.670Z,100.00
2023-04-06T15:15:12.593Z,100.00
2023-04-06T15:17:39.880Z,100.00
2023-04-06T15:20:07.358Z,100.00
2023-04-06T15:22:34.332Z,100.00
2023-04-06T15:25:01.135Z,100.00
2023-04-06T15:27:28.026Z,100.00
2023-04-06T15:29:55.487Z,100.00
2023-04-06T15:32:23.004Z,100.00
2023-04-06T15:34:49.870Z,100.00
2023-04-06T15:37:16.848Z,100.00
2023-04-06T15:39:44.465Z,100.00
2023-04-06T15:42:11.832Z,100.00
2023-04-06T15:44:38.861Z,100.00
2023-04-06T15:47:06.031Z,100.00
2023-04-06T15:49:33.104Z,100.00
2023-04-06T15:52:00.017Z,100.00
2023-04-06T15:54:27.167Z,100.00
2023-04-06T15:56:54.061Z,100.00
2023-04-06T15:59:20.899Z,100.00
2023-04-06T16:01:47.988Z,100.00
2023-04-06T16:04:15.282Z,100.00
2023-04-06T16:06:42.362Z,100.00
2023-04-06T16:09:09.589Z,100.00
2023-04-06T16:11:37.029Z,100.00
2023-04-06T16:14:04.347Z,100.00
2023-04-06T16:16:31.464Z,100.00
2023-04-06T16:18:58.359Z,100.00
2023-04-06T16:21:26.832Z,100.00
2023-04-06T16:23:55.528Z,100.00
2023-04-06T16:26:23.637Z,100.00
2023-04-06T16:28:51.590Z,100.00
2023-04-06T16:31:23.028Z,100.00
2023-04-06T16:33:51.377Z,100.00
2023-04-06T16:36:29.663Z,100.00
2023-04-06T16:38:57.686Z,100.00
2023-04-06T16:41:24.573Z,100.00
2023-04-06T16:43:52.038Z,100.00
2023-04-06T16:46:19.174Z,100.00
2023-04-06T16:48:46.187Z,100.00
2023-04-06T16:51:13.195Z,100.00
2023-04-06T16:53:40.091Z,100.00
2023-04-06T16:58:37.887Z,100.00
2023-04-06T17:01:05.959Z,100.00
2023-04-06T17:03:34.643Z,100.00
2023-04-06T17:06:01.600Z,100.00
2023-04-06T17:08:28.508Z,100.00
2023-04-06T17:10:59.483Z,100.00
2023-04-06T17:13:30.607Z,100.00
2023-04-06T17:15:57.431Z,100.00
2023-04-06T17:18:24.581Z,100.00
2023-04-06T17:20:51.515Z,100.00
2023-04-06T17:23:18.457Z,100.00
2023-04-06T17:25:45.229Z,100.00
2023-04-06T17:28:13.416Z,100.00
2023-04-06T17:30:42.032Z,100.00
2023-04-06T17:33:09.632Z,100.00
2023-04-06T17:35:36.515Z,100.00
2023-04-06T17:38:03.382Z,100.00
2023-04-06T17:40:30.314Z,100.00
2023-04-06T17:42:57.051Z,100.00
2023-04-06T17:45:24.085Z,100.00
2023-04-06T17:47:50.957Z,100.00
2023-04-06T17:50:18.605Z,100.00
2023-04-06T17:55:17.865Z,100.00
2023-04-06T17:57:46.244Z,100.00
2023-04-06T18:00:15.397Z,100.00
2023-04-06T18:02:42.520Z,100.00
2023-04-06T18:05:10.129Z,100.00
2023-04-06T18:07:37.398Z,100.00
2023-04-06T18:10:04.769Z,100.00
2023-04-06T18:12:31.461Z,100.00
2023-04-06T18:14:58.635Z,100.00
2023-04-06T18:17:25.963Z,100.00
2023-04-06T18:19:52.866Z,100.00
2023-04-06T18:22:20.533Z,100.00
2023-04-06T18:24:47.757Z,100.00
2023-04-06T18:27:14.713Z,100.00
2023-04-06T18:29:44.281Z,100.00
2023-04-06T18:32:11.075Z,100.00
2023-04-06T18:34:43.137Z,100.00
2023-04-06T18:37:13.159Z,100.00
2023-04-06T18:39:40.241Z,100.00
2023-04-06T18:42:08.161Z,100.00
2023-04-06T18:44:35.077Z,100.00
2023-04-06T18:47:02.082Z,100.00
2023-04-06T18:49:29.701Z,100.00
2023-04-06T18:52:00.160Z,100.00
2023-04-06T18:54:28.649Z,100.00
2023-04-06T18:56:56.301Z,100.00
2023-04-06T18:59:23.792Z,100.00
2023-04-06T19:01:54.155Z,100.00
2023-04-06T19:04:22.133Z,100.00
2023-04-06T19:06:49.789Z,100.00
2023-04-06T19:09:17.186Z,100.00
2023-04-06T19:11:44.144Z,100.00
2023-04-06T19:14:11.034Z,100.00
2023-04-06T19:16:41.278Z,100.00
2023-04-06T19:19:08.436Z,100.00
2023-04-06T19:21:35.408Z,100.00
2023-04-06T19:24:02.539Z,100.00
2023-04-06T19:26:30.609Z,100.00
2023-04-06T19:29:07.977Z,100.00
2023-04-06T19:31:41.745Z,100.00
2023-04-06T19:34:12.001Z,100.00
2023-04-06T19:36:38.824Z,100.00
2023-04-06T19:39:08.428Z,100.00
2023-04-06T19:41:37.399Z,100.00
2023-04-06T19:44:04.217Z,100.00
2023-04-06T19:46:34.013Z,100.00
2023-04-06T19:49:01.671Z,100.00
2023-04-06T19:51:34.932Z,100.00
2023-04-06T19:54:03.428Z,100.00
2023-04-06T19:56:31.627Z,100.00
2023-04-06T19:59:00.777Z,100.00
2023-04-06T20:01:28.603Z,100.00
2023-04-06T20:03:55.488Z,100.00
2023-04-06T20:06:22.394Z,100.00
2023-04-06T20:08:49.433Z,100.00
2023-04-06T20:11:18.260Z,100.00
2023-04-06T20:13:45.364Z,100.00
2023-04-06T20:16:12.196Z,100.00
2023-04-06T20:18:39.032Z,100.00
2023-04-06T20:21:06.325Z,100.00
2023-04-06T20:23:35.277Z,100.00
2023-04-06T20:26:02.162Z,100.00
2023-04-06T20:28:28.935Z,100.00
2023-04-06T20:30:56.091Z,100.00
2023-04-06T20:33:24.151Z,100.00
2023-04-06T20:36:01.489Z,100.00
2023-04-06T20:40:59.928Z,100.00
2023-04-06T20:43:28.936Z,100.00
2023-04-06T20:45:59.606Z,100.00
2023-04-06T20:48:26.781Z,100.00
2023-04-06T20:50:53.915Z,100.00
2023-04-06T20:53:21.300Z,100.00
2023-04-06T20:55:48.370Z,100.00
2023-04-06T20:58:17.975Z,100.00
2023-04-06T21:00:49.840Z,100.00
2023-04-06T21:03:18.093Z,100.00
2023-04-06T21:05:57.386Z,100.00
2023-04-06T21:08:24.290Z,100.00
2023-04-06T21:10:51.123Z,100.00
2023-04-06T21:13:18.677Z,100.00
2023-04-06T21:15:47.696Z,100.00
2023-04-06T21:18:14.652Z,100.00
2023-04-06T21:20:41.762Z,100.00
2023-04-06T21:23:08.695Z,100.00
2023-04-06T21:25:39.072Z,100.00
2023-04-06T21:28:06.423Z,100.00
2023-04-06T21:30:37.261Z,100.00
2023-04-06T21:33:05.302Z,100.00
2023-04-06T21:35:32.908Z,100.00
2023-04-06T21:38:00.273Z,100.00
2023-04-06T21:40:27.173Z,100.00
2023-04-06T21:42:53.973Z,100.00
2023-04-06T21:45:20.887Z,100.00
2023-04-06T21:47:47.712Z,100.00
2023-04-06T21:50:14.586Z,100.00
2023-04-06T21:52:41.538Z,100.00
2023-04-06T21:55:10.158Z,100.00
2023-04-06T21:57:37.247Z,100.00
2023-04-06T22:00:10.140Z,100.00
2023-04-06T22:02:46.145Z,100.00
2023-04-06T22:05:13.429Z,100.00
2023-04-06T22:07:57.305Z,100.00
2023-04-06T22:10:31.495Z,100.00
2023-04-06T22:12:58.384Z,100.00
2023-04-06T22:15:25.345Z,100.00
2023-04-06T22:17:52.167Z,100.00
2023-04-06T22:20:19.283Z,100.00
2023-04-06T22:22:46.009Z,100.00
2023-04-06T22:25:13.341Z,100.00
2023-04-06T22:27:40.083Z,100.00
2023-04-06T22:30:08.135Z,100.00
2023-04-06T22:32:34.836Z,100.00
2023-04-06T22:35:01.656Z,100.00
2023-04-06T22:37:29.208Z,100.00
2023-04-06T22:39:56.199Z,100.00
2023-04-06T22:42:23.426Z,100.00
2023-04-06T22:44:50.549Z,100.00
2023-04-06T22:47:17.725Z,100.00
2023-04-06T22:49:44.670Z,100.00
2023-04-06T22:52:11.874Z,100.00
2023-04-06T22:54:39.057Z,100.00
2023-04-06T22:57:05.989Z,100.00
2023-04-06T22:59:32.743Z,100.00
2023-04-06T23:01:59.719Z,100.00
2023-04-06T23:04:26.738Z,100.00
2023-04-06T23:06:53.720Z,100.00
2023-04-06T23:09:20.605Z,100.00
2023-04-06T23:11:47.729Z,100.00
2023-04-06T23:14:14.878Z,100.00
2023-04-06T23:16:42.015Z,100.00
2023-04-06T23:19:08.803Z,100.00
2023-04-06T23:21:35.637Z,100.00
2023-04-06T23:24:02.689Z,100.00
2023-04-06T23:26:29.865Z,100.00
2023-04-06T23:28:56.618Z,100.00
2023-04-06T23:31:23.528Z,100.00
2023-04-06T23:33:50.393Z,100.00
2023-04-06T23:36:17.309Z,100.00
2023-04-06T23:38:44.094Z,100.00
2023-04-06T23:41:14.312Z,100.00
2023-04-06T23:43:41.231Z,100.00
2023-04-06T23:46:08.169Z,100.00
2023-04-06T23:48:35.040Z,100.00
2023-04-06T23:51:02.130Z,100.00
2023-04-06T23:53:29.020Z,100.00
2023-04-06T23:55:55.983Z,100.00
2023-04-06T23:58:22.904Z,100.00
